This is the latest recevied weather packets stored in our database for station/object WB0OCV. If no packets are shown the sender has not sent any weather packets the latest 10 day(s).
| Time | Temp. | Humidity | Pressure | Rain* | Wind** | Luminosity | Snow |
|---|---|---|---|---|---|---|---|
| 1778203228 | 10.56° C | 59% | 1009.6 hPa | 0 mm | - | 0 W/m² | - |
| 1778202927 | 10° C | 61% | 1009.6 hPa | 0 mm | - | 0 W/m² | - |
| 1778202624 | 9.44° C | 70% | 1009.7 hPa | 0 mm | - | 0 W/m² | - |
| 1778202320 | 9.44° C | 69% | 1009.4 hPa | 0 mm | - | 0 W/m² | - |
| 1778202018 | 9.44° C | 70% | 1009.2 hPa | 0 mm | - | 0 W/m² | - |
| 1778201714 | 9.44° C | 74% | 1009 hPa | 0 mm | - | 0 W/m² | - |
| 1778201411 | 8.33° C | 79% | 1009.2 hPa | 0 mm | - | 0 W/m² | - |
| 1778201107 | 8.33° C | 83% | 1009.4 hPa | 0 mm | - | 0 W/m² | - |
| 1778200804 | 8.89° C | 84% | 1009.3 hPa | 0 mm | - | 0 W/m² | - |
| 1778200500 | 8.89° C | 86% | 1009 hPa | 0 mm | - | 0 W/m² | - |
| 1778200198 | 8.89° C | 87% | 1009 hPa | 0 mm | - | 0 W/m² | - |
| 1778199894 | 8.89° C | 87% | 1008.7 hPa | 0 mm | - | 0 W/m² | - |
| 1778199590 | 9.44° C | 86% | 1008.2 hPa | 0 mm | - | 0 W/m² | - |
| 1778199286 | 8.89° C | 84% | 1008.5 hPa | 0 mm | - | 0 W/m² | - |
| 1778198983 | 9.44° C | 83% | 1008.3 hPa | 0 mm | - | 0 W/m² | - |
| 1778198679 | 9.44° C | 82% | 1008.4 hPa | 0 mm | - | 0 W/m² | - |
| 1778198376 | 10° C | 81% | 1008.3 hPa | 0 mm | - | 0 W/m² | - |
| 1778198073 | 10° C | 79% | 1008.3 hPa | 0 mm | - | 1 W/m² | - |
| 1778197770 | 10.56° C | 79% | 1008.3 hPa | 0 mm | - | 2 W/m² | - |
| 1778197467 | 10.56° C | 77% | 1008.2 hPa | 0 mm | - | 3 W/m² | - |
| 1778197163 | 10.56° C | 77% | 1008.3 hPa | 0 mm | - | 5 W/m² | - |
| 1778196860 | 11.11° C | 76% | 1008.4 hPa | 0 mm | - | 7 W/m² | - |
| 1778196559 | 11.11° C | 75% | 1008.3 hPa | 0 mm | - | 10 W/m² | - |
| 1778196255 | 11.67° C | 73% | 1008.2 hPa | 0 mm | - | 12 W/m² | - |
| 1778195952 | 12.22° C | 70% | 1008 hPa | 0 mm | - | 14 W/m² | - |
* Rain latest hour (hover to see other rain measurements)
** Current wind speed in m/s (hover to see current wind gust speed)